Des Moines International Airport
KDSM : now visible

Airfield :











YOU CAN JOIN US ON...

 
LOGIN :

Register | Disclaimer

   EN    FR    IT 

 









Legend :    VFR   Marginal VFR   IFR   Intensive IFR   Very Intensive IFR
Visi :
Ceiling :
>= 8 km
>= 3000ft
5 to 8 km
1000 to 3000 ft
1500m to 5 km
500 to 1000 ft
800 to 1500m
200 to 500 ft
< 800m
< 200 ft
Symbols :   Thunderstorms  Fog  Heavy snow  Heavy precipitations  Wind > 20 kt






- Airport Elevation : 958 ft
- IATA code : DSM


KDSM - Des Moines International

CURRENT METAR :
  • 141454Z 00000KT 10SM CLR 23/10 A2979 RMK AO2 SLP081 T02280100 51014 $

EXPIRED METARs :
  • 141354Z 30007KT 10SM FEW200 20/11 A2978 RMK AO2 SLP079 T02000106 $
  • 141254Z 29004KT 10SM FEW200 17/10 A2977 RMK AO2 SLP076 T01720100 $
  • 141154Z 23011KT 10SM FEW180 17/09 A2975 RMK AO2 SLP067 T01670089 10211 20156 53017 $
  • 141054Z 25003KT 10SM FEW250 16/08 A2972 RMK AO2 SLP057 T01610083 $

TAF KDSM
Valid from the 14 at 12:00 until the 15 at 12:00 UTC


141120Z 1412/1512 25007KT P6SM FEW250
FM141400 01010KT P6SM SKC
FM150500 06006KT P6SM SKC
KZMP FIR / North America



MET'MAP, your aeronautical weather chart ! - Copyright ORBIFLY December 2007 - Disclaimer

ORBIFLY MET'MAP TEAM :

Programming & Development : Alexandra Zaïnal
Original concept : Baudouin d'Aumeries
Technical & hardware support : Manuel Goepfert
Assistance : Marc-Olivier Méhu




SOURCES & CREDITS :

   NOAA       Earth
Advisory